San Juan Enterprise — WDD9563 — position and weather

sailwx.info

Track history (hours):
 
Tides and Currents Weather Stations Pressure Air Temp Water Temp Dewpoint Dewpoint Depression Visibility Wind Speed Wind Dir Waves Ship Positions

San Juan Enterprise

Owner: SAN JUAN MARINE FREIGHT CO LLC, ANACORTES, WA. More information available from US FCC via Universal Licensing System and Coast Guard Vessel Documentation Center.

Last reported at 2017-May-26 16:30 UTC. Time now 2017-May-26 16:55 UTC.
Position N 48°35' W 122°47'.

Length 30 m.

MMSI: 367313160.

Date/timePositionNaut miles runAvg speedWind from/ knotsBaromVisibWave heightAir tempDewpointWater temp
2017-May-26 16:30N 48°35' W 122°47'2 3.0
2017-May-26 16:00N 48°36' W 122°49'0 0.9
2017-May-26 15:30N 48°35' W 122°49'1 2.4
2017-May-26 15:00N 48°36' W 122°49'7 4.6
2017-May-26 13:30N 48°32' W 122°41'3 1.1
2017-May-26 10:41N 48°31' W 122°36'0 0.0
2017-May-26 10:23N 48°31' W 122°36'0 0.0
2017-May-26 05:53N 48°31' W 122°36'0 0.0
2017-May-26 03:41N 48°31' W 122°36'0 0.0
2017-May-26 03:29N 48°31' W 122°36'0 0.0
2017-May-26 00:17N 48°31' W 122°36'0 0.0
2017-May-25 23:53N 48°31' W 122°36'0 0.0
2017-May-25 21:29N 48°31' W 122°36'0 0.0
2017-May-25 15:59N 48°31' W 122°36'0 0.0
2017-May-25 14:41N 48°31' W 122°36'0 0.0
2017-May-25 14:29N 48°31' W 122°36'0 0.0
2017-May-25 03:29N 48°31' W 122°36'4 6.5
2017-May-25 02:55N 48°31' W 122°42'4 9.2
2017-May-25 02:30N 48°32' W 122°48'4 8.7
2017-May-25 02:00N 48°35' W 122°53'5 9.1
2017-May-25 01:30N 48°36' W 122°59'4 8.7
2017-May-25 01:00N 48°37' W 123°06'3 5.2
2017-May-25 00:30N 48°36' W 123°09'0 0.1
2017-May-25 00:00N 48°36' W 123°09'3 5.4
2017-May-24 23:30N 48°37' W 123°05'4 8.3
2017-May-24 23:00N 48°36' W 122°59'4 8.9
2017-May-24 22:30N 48°35' W 122°53'5 9.4
2017-May-24 22:00N 48°32' W 122°47'4 7.7
2017-May-24 21:30N 48°31' W 122°42'3 6.9
2017-May-24 21:00N 48°31' W 122°37'0 0.1
2017-May-24 19:31N 48°31' W 122°36'0 0.6
2017-May-24 19:30N 48°31' W 122°36'0 0.1
2017-May-24 18:50N 48°31' W 122°36'2 5.3
2017-May-24 18:30N 48°32' W 122°39'4 9.0
2017-May-24 18:00N 48°32' W 122°46'3 5.2
2017-May-24 17:25N 48°31' W 122°50'0 0.0
2017-May-24 17:00N 48°31' W 122°50'0 0.0
2017-May-24 16:29N 48°31' W 122°50'0 0.0
2017-May-24 15:40N 48°31' W 122°50'0 1.6
2017-May-24 15:30N 48°31' W 122°50'4 7.5
2017-May-24 15:00N 48°32' W 122°44'4 7.8
2017-May-24 14:30N 48°31' W 122°39'1 1.3
2017-May-24 13:21N 48°31' W 122°36'0 0.0
2017-May-24 12:57N 48°31' W 122°36'0 0.0
2017-May-24 12:21N 48°31' W 122°36'0 0.0
2017-May-24 11:45N 48°31' W 122°36'0 0.0
2017-May-24 11:15N 48°31' W 122°36'0 0.0
2017-May-24 10:46N 48°31' W 122°36'0 0.0
2017-May-24 10:26N 48°31' W 122°36'0 0.0
2017-May-24 08:32N 48°31' W 122°36'0 0.0
2017-May-24 07:38N 48°31' W 122°36'0 0.0
2017-May-24 07:14N 48°31' W 122°36'0 0.0
2017-May-24 05:35N 48°31' W 122°36'0 0.0
2017-May-24 01:08N 48°31' W 122°36'0 0.0
2017-May-24 00:44N 48°31' W 122°36'0 0.0
2017-May-23 23:26N 48°31' W 122°36'0 0.0
2017-May-23 22:02N 48°31' W 122°36'0 0.0
2017-May-23 22:00N 48°31' W 122°36'2 3.6
2017-May-23 21:30N 48°32' W 122°39'2 2.8
2017-May-23 20:45N 48°33' W 122°41'0 0.0
2017-May-23 20:29N 48°33' W 122°41'0 0.0
2017-May-23 19:57N 48°33' W 122°41'0 0.0
2017-May-23 19:12N 48°33' W 122°41'2 8.0
2017-May-23 19:00N 48°32' W 122°40'2 2.5
2017-May-23 18:13N 48°31' W 122°37'0 0.0
2017-May-23 17:52N 48°31' W 122°37'0 0.0
2017-May-23 17:28N 48°31' W 122°37'0 0.0
2017-May-23 16:58N 48°31' W 122°37'0 0.0
2017-May-23 16:19N 48°31' W 122°37'0 0.2
2017-May-23 15:59N 48°31' W 122°37'0 0.5
2017-May-23 15:16N 48°31' W 122°36'0 0.0
2017-May-23 14:58N 48°31' W 122°36'0 0.0
2017-May-23 13:52N 48°31' W 122°36'0 0.0
2017-May-23 13:22N 48°31' W 122°36'0 0.0
2017-May-23 12:58N 48°31' W 122°36'0 0.0
2017-May-23 12:28N 48°31' W 122°36'0 0.0
2017-May-23 09:25N 48°31' W 122°36'0 0.0
2017-May-23 08:40N 48°31' W 122°36'0 0.0
2017-May-23 08:22N 48°31' W 122°36'0 0.0
2017-May-23 07:46N 48°31' W 122°36'0 0.0
2017-May-23 03:04N 48°31' W 122°36'0 0.0
2017-May-23 02:52N 48°31' W 122°36'0 0.0
2017-May-23 02:22N 48°31' W 122°36'0 0.0
2017-May-23 01:40N 48°31' W 122°36'0 0.0
2017-May-23 01:16N 48°31' W 122°36'0 0.0
2017-May-23 00:10N 48°31' W 122°36'0 0.0
2017-May-22 23:34N 48°31' W 122°36'0 0.0
2017-May-22 23:16N 48°31' W 122°36'0 0.0
2017-May-22 21:28N 48°31' W 122°36'0 0.0
2017-May-22 20:50N 48°31' W 122°36'4 9.8
2017-May-22 20:29N 48°32' W 122°42'4 8.0
2017-May-22 20:00N 48°34' W 122°46'3 5.1
2017-May-22 19:30N 48°36' W 122°49'1 1.2
2017-May-22 19:00N 48°35' W 122°49'0 0.0
2017-May-22 18:30N 48°35' W 122°49'0 0.0
2017-May-22 18:00N 48°35' W 122°49'2 3.7
2017-May-22 17:30N 48°33' W 122°49'3 5.9
2017-May-22 17:00N 48°36' W 122°49'0 0.6
2017-May-22 16:30N 48°36' W 122°49'4 7.6
2017-May-22 16:00N 48°33' W 122°45'4 8.3
2017-May-22 15:30N 48°32' W 122°39'2 3.7
2017-May-22 14:59N 48°31' W 122°36'0 0.0
2017-May-22 13:59N 48°31' W 122°36'0 0.0
2017-May-22 13:23N 48°31' W 122°36'0 0.0
2017-May-22 12:59N 48°31' W 122°36'0 0.0
2017-May-22 12:29N 48°31' W 122°36'0 0.0
2017-May-22 11:23N 48°31' W 122°36'0 0.0
2017-May-22 10:41N 48°31' W 122°36'0 0.0
2017-May-22 10:23N 48°31' W 122°36'0 0.0
2017-May-22 09:17N 48°31' W 122°36'0 0.0
2017-May-22 07:59N 48°31' W 122°36'0 0.0
2017-May-22 07:17N 48°31' W 122°36'0 0.0
2017-May-22 06:53N 48°31' W 122°36'0 0.0
2017-May-22 06:29N 48°31' W 122°36'0 0.0
2017-May-22 05:59N 48°31' W 122°36'0 0.0
2017-May-22 05:29N 48°31' W 122°36'0 0.0
2017-May-22 04:59N 48°31' W 122°36'0 0.0
2017-May-22 04:29N 48°31' W 122°36'0 0.0
2017-May-22 03:53N 48°31' W 122°36'0 0.0
2017-May-22 03:23N 48°31' W 122°36'0 0.0
2017-May-22 01:05N 48°31' W 122°36'0 0.0
2017-May-21 19:17N 48°31' W 122°36'0 0.0
2017-May-21 18:53N 48°31' W 122°36'0 0.0
2017-May-21 15:35N 48°31' W 122°36'0 0.0
2017-May-21 15:23N 48°31' W 122°36'0 0.0
2017-May-21 14:53N 48°31' W 122°36'0 0.0
2017-May-21 14:29N 48°31' W 122°36'0 0.0
2017-May-21 12:05N 48°31' W 122°36'0 0.0
2017-May-21 11:41N 48°31' W 122°36'0 0.0
2017-May-21 11:29N 48°31' W 122°36'0 0.0
2017-May-21 10:53N 48°31' W 122°36'0 0.0
2017-May-21 09:47N 48°31' W 122°36'0 0.0
2017-May-21 09:23N 48°31' W 122°36'0 0.0
2017-May-21 08:59N 48°31' W 122°36'0 0.0
2017-May-21 08:29N 48°31' W 122°36'0 0.0
2017-May-21 07:35N 48°31' W 122°36'0 0.0
2017-May-21 07:23N 48°31' W 122°36'0 0.0
2017-May-21 06:53N 48°31' W 122°36'0 0.0
2017-May-21 06:23N 48°31' W 122°36'0 0.0
2017-May-21 05:59N 48°31' W 122°36'0 0.0
2017-May-21 05:29N 48°31' W 122°36'0 0.0
2017-May-21 04:59N 48°31' W 122°36'0 0.0
2017-May-21 04:29N 48°31' W 122°36'0 0.0
2017-May-21 03:59N 48°31' W 122°36'0 0.0
2017-May-21 03:29N 48°31' W 122°36'0 0.0
2017-May-21 02:59N 48°31' W 122°36'0 0.0
2017-May-21 02:29N 48°31' W 122°36'0 0.0
2017-May-21 01:59N 48°31' W 122°36'0 0.0
2017-May-21 01:29N 48°31' W 122°36'0 0.0
2017-May-21 00:17N 48°31' W 122°36'0 0.0
2017-May-20 21:59N 48°31' W 122°36'0 0.0
2017-May-20 21:17N 48°31' W 122°36'0 0.0
2017-May-20 20:23N 48°31' W 122°36'0 0.0
2017-May-20 19:53N 48°31' W 122°36'0 0.0
2017-May-20 19:29N 48°31' W 122°36'0 0.0
2017-May-20 18:53N 48°31' W 122°36'0 0.0
2017-May-20 18:17N 48°31' W 122°36'0 0.0
2017-May-20 17:05N 48°31' W 122°36'0 0.0
2017-May-20 16:41N 48°31' W 122°36'0 0.0
2017-May-20 16:11N 48°31' W 122°36'0 0.0
2017-May-20 15:59N 48°31' W 122°36'0 0.0
2017-May-20 15:29N 48°31' W 122°36'0 0.0
2017-May-20 14:59N 48°31' W 122°36'0 0.0
2017-May-20 14:29N 48°31' W 122°36'0 0.0
2017-May-20 13:23N 48°31' W 122°36'0 0.0
2017-May-20 11:17N 48°31' W 122°36'0 0.0
2017-May-20 10:47N 48°31' W 122°36'0 0.0
2017-May-20 09:29N 48°31' W 122°36'0 0.0
2017-May-20 08:35N 48°31' W 122°36'0 0.0
2017-May-20 08:29N 48°31' W 122°36'0 0.0
2017-May-20 06:47N 48°31' W 122°36'0 0.0
2017-May-20 06:17N 48°31' W 122°36'0 0.0
2017-May-20 05:47N 48°31' W 122°36'0 0.0
2017-May-20 05:29N 48°31' W 122°36'0 0.0
2017-May-20 03:53N 48°31' W 122°36'0 0.0
2017-May-20 03:23N 48°31' W 122°36'0 0.0
2017-May-20 02:59N 48°31' W 122°36'0 0.0
2017-May-20 01:20N 48°31' W 122°36'0 0.0
2017-May-20 00:58N 48°31' W 122°36'4 8.0
2017-May-20 00:30N 48°31' W 122°42'4 7.4
2017-May-20 00:00N 48°31' W 122°47'0 0.1
2017-May-19 23:30N 48°31' W 122°47'0 0.0
2017-May-19 23:00N 48°31' W 122°47'0 0.0
2017-May-19 22:30N 48°31' W 122°47'0 0.0
2017-May-19 22:00N 48°31' W 122°47'0 0.0
2017-May-19 21:30N 48°31' W 122°47'0 0.0
2017-May-19 21:01N 48°31' W 122°47'1 2.3
2017-May-19 20:30N 48°31' W 122°46'4 8.7
2017-May-19 20:00N 48°32' W 122°39'2 3.7
2017-May-19 19:28N 48°31' W 122°36'4 8.7
2017-May-19 19:00N 48°31' W 122°42'3 6.8
2017-May-19 18:30N 48°31' W 122°47'4 8.1
2017-May-19 18:00N 48°31' W 122°41'3 4.5
2017-May-19 17:15N 48°31' W 122°36'1 4.4
2017-May-19 17:00N 48°31' W 122°38'4 8.9
2017-May-19 16:31N 48°33' W 122°44'4 7.7
2017-May-19 16:00N 48°35' W 122°49'0 0.0
2017-May-19 15:30N 48°35' W 122°49'1 2.5
2017-May-19 15:01N 48°35' W 122°47'4 8.5
2017-May-19 14:29N 48°32' W 122°42'4 0.7
2017-May-19 09:04N 48°31' W 122°36'0 0.0
2017-May-19 07:16N 48°31' W 122°36'0 0.0
2017-May-19 06:46N 48°31' W 122°36'0 0.0
2017-May-19 06:28N 48°31' W 122°36'0 0.0
2017-May-19 05:22N 48°31' W 122°36'0 0.0
2017-May-19 04:52N 48°31' W 122°36'0 0.0
2017-May-19 03:40N 48°31' W 122°36'0 0.0
2017-May-18 21:58N 48°31' W 122°36'0 0.0
2017-May-18 21:30N 48°31' W 122°36'0 0.7
2017-May-18 21:00N 48°31' W 122°37'4 7.6
2017-May-18 20:30N 48°32' W 122°42'4 8.3
2017-May-18 20:00N 48°32' W 122°49'4 7.9
2017-May-18 19:30N 48°34' W 122°54'2 3.2
2017-May-18 19:00N 48°33' W 122°51'3 5.3
2017-May-18 18:30N 48°31' W 122°50'4 8.1
2017-May-18 18:00N 48°34' W 122°54'3 5.3
2017-May-18 17:30N 48°35' W 122°50'4 7.9
2017-May-18 17:00N 48°33' W 122°44'4 8.3
2017-May-18 16:30N 48°32' W 122°39'2 3.2
2017-May-18 16:00N 48°31' W 122°36'0 0.0
2017-May-18 15:27N 48°31' W 122°36'0 0.0
2017-May-18 14:57N 48°31' W 122°36'0 0.0
2017-May-18 13:57N 48°31' W 122°36'0 0.0
2017-May-18 13:27N 48°31' W 122°36'0 0.0
2017-May-18 12:51N 48°31' W 122°36'0 0.0
2017-May-18 12:27N 48°31' W 122°36'0 0.0
2017-May-18 11:57N 48°31' W 122°36'0 0.0
2017-May-18 11:27N 48°31' W 122°36'0 0.0
2017-May-18 10:56N 48°31' W 122°36'0 0.0
2017-May-18 10:26N 48°31' W 122°36'0 0.0
2017-May-18 09:56N 48°31' W 122°36'0 0.0
2017-May-18 09:26N 48°31' W 122°36'0 0.0
2017-May-18 08:50N 48°31' W 122°36'0 0.0
2017-May-18 08:26N 48°31' W 122°36'0 0.0
2017-May-18 07:44N 48°31' W 122°36'0 0.0
2017-May-18 07:20N 48°31' W 122°36'0 0.0
2017-May-18 06:56N 48°31' W 122°36'0 0.0
2017-May-18 06:20N 48°31' W 122°36'0 0.0
2017-May-18 05:56N 48°31' W 122°36'0 0.0
2017-May-18 05:26N 48°31' W 122°36'0 0.0
2017-May-18 04:56N 48°31' W 122°36'0 0.0
2017-May-18 04:26N 48°31' W 122°36'0 0.0
2017-May-18 03:56N 48°31' W 122°36'0 0.0
2017-May-18 03:20N 48°31' W 122°36'0 0.0
2017-May-18 02:56N 48°31' W 122°36'0 0.0
2017-May-18 02:26N 48°31' W 122°36'0 0.0
2017-May-18 01:50N 48°31' W 122°36'0 0.0
2017-May-18 01:20N 48°31' W 122°36'0 0.0
2017-May-18 00:56N 48°31' W 122°36'0 0.0
2017-May-18 00:26N 48°31' W 122°36'0 0.0
2017-May-17 23:56N 48°31' W 122°36'0 0.0
2017-May-17 23:26N 48°31' W 122°36'0 0.0
2017-May-17 22:56N 48°31' W 122°36'0 0.0
2017-May-17 22:20N 48°31' W 122°36'0 0.0
2017-May-17 21:56N 48°31' W 122°36'0 0.0
2017-May-17 21:26N 48°31' W 122°36'0 0.0
2017-May-17 20:50N 48°31' W 122°36'0 0.0
2017-May-17 20:26N 48°31' W 122°36'0 0.0
2017-May-17 19:56N 48°31' W 122°36'0 0.0
2017-May-17 19:30N 48°31' W 122°36'0 0.4
2017-May-17 19:00N 48°31' W 122°37'4 7.5
2017-May-17 18:30N 48°32' W 122°42'4 8.8
2017-May-17 18:00N 48°35' W 122°47'1 2.7
2017-May-17 17:30N 48°36' W 122°49'0 0.0
2017-May-17 17:00N 48°36' W 122°49'0 0.0
2017-May-17 16:30N 48°36' W 122°49'0 0.0
2017-May-17 16:00N 48°36' W 122°49'0 0.9
2017-May-17 15:30N 48°35' W 122°49'4 7.6
2017-May-17 15:00N 48°33' W 122°44'5 5.3
2017-May-17 13:59N 48°31' W 122°36'0 0.0
2017-May-17 13:29N 48°31' W 122°36'0 0.0
2017-May-17 12:53N 48°31' W 122°36'0 0.0
2017-May-17 12:29N 48°31' W 122°36'0 0.0
2017-May-17 11:59N 48°31' W 122°36'0 0.0
2017-May-17 11:29N 48°31' W 122°36'0 0.0
2017-May-17 10:59N 48°31' W 122°36'0 0.0
2017-May-17 10:17N 48°31' W 122°36'0 0.0
2017-May-17 09:59N 48°31' W 122°36'0 0.0
2017-May-17 09:29N 48°31' W 122°36'0 0.0
2017-May-17 08:59N 48°31' W 122°36'0 0.0
2017-May-17 08:29N 48°31' W 122°36'0 0.0
2017-May-17 07:59N 48°31' W 122°36'0 0.0
2017-May-17 07:29N 48°31' W 122°36'0 0.0
2017-May-17 06:59N 48°31' W 122°36'0 0.0
2017-May-17 06:29N 48°31' W 122°36'0 0.0
2017-May-17 05:59N 48°31' W 122°36'0 0.0
2017-May-17 05:29N 48°31' W 122°36'0 0.0
2017-May-17 04:59N 48°31' W 122°36'0 0.0
2017-May-17 04:23N 48°31' W 122°36'0 0.0
2017-May-17 03:59N 48°31' W 122°36'0 0.0
2017-May-17 03:29N 48°31' W 122°36'0 0.0
2017-May-17 02:59N 48°31' W 122°36'0 0.0
2017-May-17 02:29N 48°31' W 122°36'0 0.0
2017-May-17 01:59N 48°31' W 122°36'0 0.0
2017-May-17 01:29N 48°31' W 122°36'0 0.0
2017-May-17 00:59N 48°31' W 122°36'0 0.0
2017-May-17 00:29N 48°31' W 122°36'0 0.0
2017-May-16 23:59N 48°31' W 122°36'0 0.0
2017-May-16 23:29N 48°31' W 122°36'0 0.0
2017-May-16 22:59N 48°31' W 122°36'0 0.0
2017-May-16 22:29N 48°31' W 122°36'0 0.0
2017-May-16 21:59N 48°31' W 122°36'0 0.0
2017-May-16 21:29N 48°31' W 122°36'0 0.0
2017-May-16 20:59N 48°31' W 122°36'0 0.0
2017-May-16 20:29N 48°31' W 122°36'0 0.0
2017-May-16 19:53N 48°31' W 122°36'0 0.0
2017-May-16 19:29N 48°31' W 122°36'0 0.0
2017-May-16 18:59N 48°31' W 122°36'0 0.0
2017-May-16 18:30N 48°31' W 122°36'0 0.0
2017-May-16 18:00N 48°31' W 122°36'1 1.2
2017-May-16 17:30N 48°31' W 122°36'0 0.0
2017-May-16 17:00N 48°31' W 122°36'2 4.4
2017-May-16 16:30N 48°32' W 122°39'3 6.7
2017-May-16 16:00N 48°34' W 122°44'0 0.6
2017-May-16 15:30N 48°34' W 122°44'2 4.8
2017-May-16 15:00N 48°32' W 122°41'3 1.3
2017-May-16 12:19N 48°31' W 122°36'0 0.0
2017-May-16 11:55N 48°31' W 122°36'0 0.0
2017-May-16 11:25N 48°31' W 122°36'  
Track history (hours):
 
Tides and Currents Weather Stations Pressure Air Temp Water Temp Dewpoint Dewpoint Depression Visibility Wind Speed Wind Dir Waves Ship Positions

San Juan Enterprise

Owner: SAN JUAN MARINE FREIGHT CO LLC, ANACORTES, WA. More information available from US FCC via Universal Licensing System and Coast Guard Vessel Documentation Center.

Last reported at 2017-May-26 16:30 UTC. Time now 2017-May-26 16:55 UTC.
Position N 48°35' W 122°47'.

Length 30 m.

MMSI: 367313160.

Date/timePositionNaut miles runAvg speedWind from/ knotsBaromVisibWave heightAir tempDewpointWater temp
2017-May-26 16:30N 48°35' W 122°47'2 3.0
2017-May-26 16:00N 48°36' W 122°49'0 0.9
2017-May-26 15:30N 48°35' W 122°49'1 2.4
2017-May-26 15:00N 48°36' W 122°49'7 4.6
2017-May-26 13:30N 48°32' W 122°41'3 1.1
2017-May-26 10:41N 48°31' W 122°36'0 0.0
2017-May-26 10:23N 48°31' W 122°36'0 0.0
2017-May-26 05:53N 48°31' W 122°36'0 0.0
2017-May-26 03:41N 48°31' W 122°36'0 0.0
2017-May-26 03:29N 48°31' W 122°36'0 0.0
2017-May-26 00:17N 48°31' W 122°36'0 0.0
2017-May-25 23:53N 48°31' W 122°36'0 0.0
2017-May-25 21:29N 48°31' W 122°36'0 0.0
2017-May-25 15:59N 48°31' W 122°36'0 0.0
2017-May-25 14:41N 48°31' W 122°36'0 0.0
2017-May-25 14:29N 48°31' W 122°36'0 0.0
2017-May-25 03:29N 48°31' W 122°36'4 6.5
2017-May-25 02:55N 48°31' W 122°42'4 9.2
2017-May-25 02:30N 48°32' W 122°48'4 8.7
2017-May-25 02:00N 48°35' W 122°53'5 9.1
2017-May-25 01:30N 48°36' W 122°59'4 8.7
2017-May-25 01:00N 48°37' W 123°06'3 5.2
2017-May-25 00:30N 48°36' W 123°09'0 0.1
2017-May-25 00:00N 48°36' W 123°09'3 5.4
2017-May-24 23:30N 48°37' W 123°05'4 8.3
2017-May-24 23:00N 48°36' W 122°59'4 8.9
2017-May-24 22:30N 48°35' W 122°53'5 9.4
2017-May-24 22:00N 48°32' W 122°47'4 7.7
2017-May-24 21:30N 48°31' W 122°42'3 6.9
2017-May-24 21:00N 48°31' W 122°37'0 0.1
2017-May-24 19:31N 48°31' W 122°36'0 0.6
2017-May-24 19:30N 48°31' W 122°36'0 0.1
2017-May-24 18:50N 48°31' W 122°36'2 5.3
2017-May-24 18:30N 48°32' W 122°39'4 9.0
2017-May-24 18:00N 48°32' W 122°46'3 5.2
2017-May-24 17:25N 48°31' W 122°50'0 0.0
2017-May-24 17:00N 48°31' W 122°50'0 0.0
2017-May-24 16:29N 48°31' W 122°50'0 0.0
2017-May-24 15:40N 48°31' W 122°50'0 1.6
2017-May-24 15:30N 48°31' W 122°50'4 7.5
2017-May-24 15:00N 48°32' W 122°44'4 7.8
2017-May-24 14:30N 48°31' W 122°39'1 1.3
2017-May-24 13:21N 48°31' W 122°36'0 0.0
2017-May-24 12:57N 48°31' W 122°36'0 0.0
2017-May-24 12:21N 48°31' W 122°36'0 0.0
2017-May-24 11:45N 48°31' W 122°36'0 0.0
2017-May-24 11:15N 48°31' W 122°36'0 0.0
2017-May-24 10:46N 48°31' W 122°36'0 0.0
2017-May-24 10:26N 48°31' W 122°36'0 0.0
2017-May-24 08:32N 48°31' W 122°36'0 0.0
2017-May-24 07:38N 48°31' W 122°36'0 0.0
2017-May-24 07:14N 48°31' W 122°36'0 0.0
2017-May-24 05:35N 48°31' W 122°36'0 0.0
2017-May-24 01:08N 48°31' W 122°36'0 0.0
2017-May-24 00:44N 48°31' W 122°36'0 0.0
2017-May-23 23:26N 48°31' W 122°36'0 0.0
2017-May-23 22:02N 48°31' W 122°36'0 0.0
2017-May-23 22:00N 48°31' W 122°36'2 3.6
2017-May-23 21:30N 48°32' W 122°39'2 2.8
2017-May-23 20:45N 48°33' W 122°41'0 0.0
2017-May-23 20:29N 48°33' W 122°41'0 0.0
2017-May-23 19:57N 48°33' W 122°41'0 0.0
2017-May-23 19:12N 48°33' W 122°41'2 8.0
2017-May-23 19:00N 48°32' W 122°40'2 2.5
2017-May-23 18:13N 48°31' W 122°37'0 0.0
2017-May-23 17:52N 48°31' W 122°37'0 0.0
2017-May-23 17:28N 48°31' W 122°37'0 0.0
2017-May-23 16:58N 48°31' W 122°37'0 0.0
2017-May-23 16:19N 48°31' W 122°37'0 0.2
2017-May-23 15:59N 48°31' W 122°37'0 0.5
2017-May-23 15:16N 48°31' W 122°36'0 0.0
2017-May-23 14:58N 48°31' W 122°36'0 0.0
2017-May-23 13:52N 48°31' W 122°36'0 0.0
2017-May-23 13:22N 48°31' W 122°36'0 0.0
2017-May-23 12:58N 48°31' W 122°36'0 0.0
2017-May-23 12:28N 48°31' W 122°36'0 0.0
2017-May-23 09:25N 48°31' W 122°36'0 0.0
2017-May-23 08:40N 48°31' W 122°36'0 0.0
2017-May-23 08:22N 48°31' W 122°36'0 0.0
2017-May-23 07:46N 48°31' W 122°36'0 0.0
2017-May-23 03:04N 48°31' W 122°36'0 0.0
2017-May-23 02:52N 48°31' W 122°36'0 0.0
2017-May-23 02:22N 48°31' W 122°36'0 0.0
2017-May-23 01:40N 48°31' W 122°36'0 0.0
2017-May-23 01:16N 48°31' W 122°36'0 0.0
2017-May-23 00:10N 48°31' W 122°36'0 0.0
2017-May-22 23:34N 48°31' W 122°36'0 0.0
2017-May-22 23:16N 48°31' W 122°36'0 0.0
2017-May-22 21:28N 48°31' W 122°36'0 0.0
2017-May-22 20:50N 48°31' W 122°36'4 9.8
2017-May-22 20:29N 48°32' W 122°42'4 8.0
2017-May-22 20:00N 48°34' W 122°46'3 5.1
2017-May-22 19:30N 48°36' W 122°49'1 1.2
2017-May-22 19:00N 48°35' W 122°49'0 0.0
2017-May-22 18:30N 48°35' W 122°49'0 0.0
2017-May-22 18:00N 48°35' W 122°49'2 3.7
2017-May-22 17:30N 48°33' W 122°49'3 5.9
2017-May-22 17:00N 48°36' W 122°49'0 0.6
2017-May-22 16:30N 48°36' W 122°49'4 7.6
2017-May-22 16:00N 48°33' W 122°45'4 8.3
2017-May-22 15:30N 48°32' W 122°39'2 3.7
2017-May-22 14:59N 48°31' W 122°36'0 0.0
2017-May-22 13:59N 48°31' W 122°36'0 0.0
2017-May-22 13:23N 48°31' W 122°36'0 0.0
2017-May-22 12:59N 48°31' W 122°36'0 0.0
2017-May-22 12:29N 48°31' W 122°36'0 0.0
2017-May-22 11:23N 48°31' W 122°36'0 0.0
2017-May-22 10:41N 48°31' W 122°36'0 0.0
2017-May-22 10:23N 48°31' W 122°36'0 0.0
2017-May-22 09:17N 48°31' W 122°36'0 0.0
2017-May-22 07:59N 48°31' W 122°36'0 0.0
2017-May-22 07:17N 48°31' W 122°36'0 0.0
2017-May-22 06:53N 48°31' W 122°36'0 0.0
2017-May-22 06:29N 48°31' W 122°36'0 0.0
2017-May-22 05:59N 48°31' W 122°36'0 0.0
2017-May-22 05:29N 48°31' W 122°36'0 0.0
2017-May-22 04:59N 48°31' W 122°36'0 0.0
2017-May-22 04:29N 48°31' W 122°36'0 0.0
2017-May-22 03:53N 48°31' W 122°36'0 0.0
2017-May-22 03:23N 48°31' W 122°36'0 0.0
2017-May-22 01:05N 48°31' W 122°36'0 0.0
2017-May-21 19:17N 48°31' W 122°36'0 0.0
2017-May-21 18:53N 48°31' W 122°36'0 0.0
2017-May-21 15:35N 48°31' W 122°36'0 0.0
2017-May-21 15:23N 48°31' W 122°36'0 0.0
2017-May-21 14:53N 48°31' W 122°36'0 0.0
2017-May-21 14:29N 48°31' W 122°36'0 0.0
2017-May-21 12:05N 48°31' W 122°36'0 0.0
2017-May-21 11:41N 48°31' W 122°36'0 0.0
2017-May-21 11:29N 48°31' W 122°36'0 0.0
2017-May-21 10:53N 48°31' W 122°36'0 0.0
2017-May-21 09:47N 48°31' W 122°36'0 0.0
2017-May-21 09:23N 48°31' W 122°36'0 0.0
2017-May-21 08:59N 48°31' W 122°36'0 0.0
2017-May-21 08:29N 48°31' W 122°36'0 0.0
2017-May-21 07:35N 48°31' W 122°36'0 0.0
2017-May-21 07:23N 48°31' W 122°36'0 0.0
2017-May-21 06:53N 48°31' W 122°36'0 0.0
2017-May-21 06:23N 48°31' W 122°36'0 0.0
2017-May-21 05:59N 48°31' W 122°36'0 0.0
2017-May-21 05:29N 48°31' W 122°36'0 0.0
2017-May-21 04:59N 48°31' W 122°36'0 0.0
2017-May-21 04:29N 48°31' W 122°36'0 0.0
2017-May-21 03:59N 48°31' W 122°36'0 0.0
2017-May-21 03:29N 48°31' W 122°36'0 0.0
2017-May-21 02:59N 48°31' W 122°36'0 0.0
2017-May-21 02:29N 48°31' W 122°36'0 0.0
2017-May-21 01:59N 48°31' W 122°36'0 0.0
2017-May-21 01:29N 48°31' W 122°36'0 0.0
2017-May-21 00:17N 48°31' W 122°36'0 0.0
2017-May-20 21:59N 48°31' W 122°36'0 0.0
2017-May-20 21:17N 48°31' W 122°36'0 0.0
2017-May-20 20:23N 48°31' W 122°36'0 0.0
2017-May-20 19:53N 48°31' W 122°36'0 0.0
2017-May-20 19:29N 48°31' W 122°36'0 0.0
2017-May-20 18:53N 48°31' W 122°36'0 0.0
2017-May-20 18:17N 48°31' W 122°36'0 0.0
2017-May-20 17:05N 48°31' W 122°36'0 0.0
2017-May-20 16:41N 48°31' W 122°36'0 0.0
2017-May-20 16:11N 48°31' W 122°36'0 0.0
2017-May-20 15:59N 48°31' W 122°36'0 0.0
2017-May-20 15:29N 48°31' W 122°36'0 0.0
2017-May-20 14:59N 48°31' W 122°36'0 0.0
2017-May-20 14:29N 48°31' W 122°36'0 0.0
2017-May-20 13:23N 48°31' W 122°36'0 0.0
2017-May-20 11:17N 48°31' W 122°36'0 0.0
2017-May-20 10:47N 48°31' W 122°36'0 0.0
2017-May-20 09:29N 48°31' W 122°36'0 0.0
2017-May-20 08:35N 48°31' W 122°36'0 0.0
2017-May-20 08:29N 48°31' W 122°36'0 0.0
2017-May-20 06:47N 48°31' W 122°36'0 0.0
2017-May-20 06:17N 48°31' W 122°36'0 0.0
2017-May-20 05:47N 48°31' W 122°36'0 0.0
2017-May-20 05:29N 48°31' W 122°36'0 0.0
2017-May-20 03:53N 48°31' W 122°36'0 0.0
2017-May-20 03:23N 48°31' W 122°36'0 0.0
2017-May-20 02:59N 48°31' W 122°36'0 0.0
2017-May-20 01:20N 48°31' W 122°36'0 0.0
2017-May-20 00:58N 48°31' W 122°36'4 8.0
2017-May-20 00:30N 48°31' W 122°42'4 7.4
2017-May-20 00:00N 48°31' W 122°47'0 0.1
2017-May-19 23:30N 48°31' W 122°47'0 0.0
2017-May-19 23:00N 48°31' W 122°47'0 0.0
2017-May-19 22:30N 48°31' W 122°47'0 0.0
2017-May-19 22:00N 48°31' W 122°47'0 0.0
2017-May-19 21:30N 48°31' W 122°47'0 0.0
2017-May-19 21:01N 48°31' W 122°47'1 2.3
2017-May-19 20:30N 48°31' W 122°46'4 8.7
2017-May-19 20:00N 48°32' W 122°39'2 3.7
2017-May-19 19:28N 48°31' W 122°36'4 8.7
2017-May-19 19:00N 48°31' W 122°42'3 6.8
2017-May-19 18:30N 48°31' W 122°47'4 8.1
2017-May-19 18:00N 48°31' W 122°41'3 4.5
2017-May-19 17:15N 48°31' W 122°36'1 4.4
2017-May-19 17:00N 48°31' W 122°38'4 8.9
2017-May-19 16:31N 48°33' W 122°44'4 7.7
2017-May-19 16:00N 48°35' W 122°49'0 0.0
2017-May-19 15:30N 48°35' W 122°49'1 2.5
2017-May-19 15:01N 48°35' W 122°47'4 8.5
2017-May-19 14:29N 48°32' W 122°42'4 0.7
2017-May-19 09:04N 48°31' W 122°36'0 0.0
2017-May-19 07:16N 48°31' W 122°36'0 0.0
2017-May-19 06:46N 48°31' W 122°36'0 0.0
2017-May-19 06:28N 48°31' W 122°36'0 0.0
2017-May-19 05:22N 48°31' W 122°36'0 0.0
2017-May-19 04:52N 48°31' W 122°36'0 0.0
2017-May-19 03:40N 48°31' W 122°36'0 0.0
2017-May-18 21:58N 48°31' W 122°36'0 0.0
2017-May-18 21:30N 48°31' W 122°36'0 0.7
2017-May-18 21:00N 48°31' W 122°37'4 7.6
2017-May-18 20:30N 48°32' W 122°42'4 8.3
2017-May-18 20:00N 48°32' W 122°49'4 7.9
2017-May-18 19:30N 48°34' W 122°54'2 3.2
2017-May-18 19:00N 48°33' W 122°51'3 5.3
2017-May-18 18:30N 48°31' W 122°50'4 8.1
2017-May-18 18:00N 48°34' W 122°54'3 5.3
2017-May-18 17:30N 48°35' W 122°50'4 7.9
2017-May-18 17:00N 48°33' W 122°44'4 8.3
2017-May-18 16:30N 48°32' W 122°39'2 3.2
2017-May-18 16:00N 48°31' W 122°36'0 0.0
2017-May-18 15:27N 48°31' W 122°36'0 0.0
2017-May-18 14:57N 48°31' W 122°36'0 0.0
2017-May-18 13:57N 48°31' W 122°36'0 0.0
2017-May-18 13:27N 48°31' W 122°36'0 0.0
2017-May-18 12:51N 48°31' W 122°36'0 0.0
2017-May-18 12:27N 48°31' W 122°36'0 0.0
2017-May-18 11:57N 48°31' W 122°36'0 0.0
2017-May-18 11:27N 48°31' W 122°36'0 0.0
2017-May-18 10:56N 48°31' W 122°36'0 0.0
2017-May-18 10:26N 48°31' W 122°36'0 0.0
2017-May-18 09:56N 48°31' W 122°36'0 0.0
2017-May-18 09:26N 48°31' W 122°36'0 0.0
2017-May-18 08:50N 48°31' W 122°36'0 0.0
2017-May-18 08:26N 48°31' W 122°36'0 0.0
2017-May-18 07:44N 48°31' W 122°36'0 0.0
2017-May-18 07:20N 48°31' W 122°36'0 0.0
2017-May-18 06:56N 48°31' W 122°36'0 0.0
2017-May-18 06:20N 48°31' W 122°36'0 0.0
2017-May-18 05:56N 48°31' W 122°36'0 0.0
2017-May-18 05:26N 48°31' W 122°36'0 0.0
2017-May-18 04:56N 48°31' W 122°36'0 0.0
2017-May-18 04:26N 48°31' W 122°36'0 0.0
2017-May-18 03:56N 48°31' W 122°36'0 0.0
2017-May-18 03:20N 48°31' W 122°36'0 0.0
2017-May-18 02:56N 48°31' W 122°36'0 0.0
2017-May-18 02:26N 48°31' W 122°36'0 0.0
2017-May-18 01:50N 48°31' W 122°36'0 0.0
2017-May-18 01:20N 48°31' W 122°36'0 0.0
2017-May-18 00:56N 48°31' W 122°36'0 0.0
2017-May-18 00:26N 48°31' W 122°36'0 0.0
2017-May-17 23:56N 48°31' W 122°36'0 0.0
2017-May-17 23:26N 48°31' W 122°36'0 0.0
2017-May-17 22:56N 48°31' W 122°36'0 0.0
2017-May-17 22:20N 48°31' W 122°36'0 0.0
2017-May-17 21:56N 48°31' W 122°36'0 0.0
2017-May-17 21:26N 48°31' W 122°36'0 0.0
2017-May-17 20:50N 48°31' W 122°36'0 0.0
2017-May-17 20:26N 48°31' W 122°36'0 0.0
2017-May-17 19:56N 48°31' W 122°36'0 0.0
2017-May-17 19:30N 48°31' W 122°36'0 0.4
2017-May-17 19:00N 48°31' W 122°37'4 7.5
2017-May-17 18:30N 48°32' W 122°42'4 8.8
2017-May-17 18:00N 48°35' W 122°47'1 2.7
2017-May-17 17:30N 48°36' W 122°49'0 0.0
2017-May-17 17:00N 48°36' W 122°49'0 0.0
2017-May-17 16:30N 48°36' W 122°49'0 0.0
2017-May-17 16:00N 48°36' W 122°49'0 0.9
2017-May-17 15:30N 48°35' W 122°49'4 7.6
2017-May-17 15:00N 48°33' W 122°44'5 5.3
2017-May-17 13:59N 48°31' W 122°36'0 0.0
2017-May-17 13:29N 48°31' W 122°36'0 0.0
2017-May-17 12:53N 48°31' W 122°36'0 0.0
2017-May-17 12:29N 48°31' W 122°36'0 0.0
2017-May-17 11:59N 48°31' W 122°36'0 0.0
2017-May-17 11:29N 48°31' W 122°36'0 0.0
2017-May-17 10:59N 48°31' W 122°36'0 0.0
2017-May-17 10:17N 48°31' W 122°36'0 0.0
2017-May-17 09:59N 48°31' W 122°36'0 0.0
2017-May-17 09:29N 48°31' W 122°36'0 0.0
2017-May-17 08:59N 48°31' W 122°36'0 0.0
2017-May-17 08:29N 48°31' W 122°36'0 0.0
2017-May-17 07:59N 48°31' W 122°36'0 0.0
2017-May-17 07:29N 48°31' W 122°36'0 0.0
2017-May-17 06:59N 48°31' W 122°36'0 0.0
2017-May-17 06:29N 48°31' W 122°36'0 0.0
2017-May-17 05:59N 48°31' W 122°36'0 0.0
2017-May-17 05:29N 48°31' W 122°36'0 0.0
2017-May-17 04:59N 48°31' W 122°36'0 0.0
2017-May-17 04:23N 48°31' W 122°36'0 0.0
2017-May-17 03:59N 48°31' W 122°36'0 0.0
2017-May-17 03:29N 48°31' W 122°36'0 0.0
2017-May-17 02:59N 48°31' W 122°36'0 0.0
2017-May-17 02:29N 48°31' W 122°36'0 0.0
2017-May-17 01:59N 48°31' W 122°36'0 0.0
2017-May-17 01:29N 48°31' W 122°36'0 0.0
2017-May-17 00:59N 48°31' W 122°36'0 0.0
2017-May-17 00:29N 48°31' W 122°36'0 0.0
2017-May-16 23:59N 48°31' W 122°36'0 0.0
2017-May-16 23:29N 48°31' W 122°36'0 0.0
2017-May-16 22:59N 48°31' W 122°36'0 0.0
2017-May-16 22:29N 48°31' W 122°36'0 0.0
2017-May-16 21:59N 48°31' W 122°36'0 0.0
2017-May-16 21:29N 48°31' W 122°36'0 0.0
2017-May-16 20:59N 48°31' W 122°36'0 0.0
2017-May-16 20:29N 48°31' W 122°36'0 0.0
2017-May-16 19:53N 48°31' W 122°36'0 0.0
2017-May-16 19:29N 48°31' W 122°36'0 0.0
2017-May-16 18:59N 48°31' W 122°36'0 0.0
2017-May-16 18:30N 48°31' W 122°36'0 0.0
2017-May-16 18:00N 48°31' W 122°36'1 1.2
2017-May-16 17:30N 48°31' W 122°36'0 0.0
2017-May-16 17:00N 48°31' W 122°36'2 4.4
2017-May-16 16:30N 48°32' W 122°39'3 6.7
2017-May-16 16:00N 48°34' W 122°44'0 0.6
2017-May-16 15:30N 48°34' W 122°44'2 4.8
2017-May-16 15:00N 48°32' W 122°41'3 1.3
2017-May-16 12:19N 48°31' W 122°36'0 0.0
2017-May-16 11:55N 48°31' W 122°36'0 0.0
2017-May-16 11:25N 48°31' W 122°36'  

Dump ship's entire track history